Time;durP1;ratioP1;P1;durP2;ratioP2;P2;SDS_P1;SDS_P2;PMS_P1;PMS_P2;Temp;Humidity;BMP_temperature;BMP_pressure;BME280_temperature;BME280_humidity;BME280_pressure;Samples;Min_cycle;Max_cycle;Signal;HPM_P1;HPM_P2
2021/03/13 00:00:11;;;;;;;8.57;4.10;;;4.70;90.50;;;;;;5052055;28;20485;-69
2021/03/13 00:02:38;;;;;;;10.50;4.13;;;4.70;90.50;;;;;;5052692;28;20409;-70
2021/03/13 00:05:04;;;;;;;9.27;4.03;;;4.80;90.40;;;;;;5052183;28;20477;-69
2021/03/13 00:07:30;;;;;;;8.37;3.70;;;4.70;90.30;;;;;;5052020;28;20044;-69
2021/03/13 00:09:56;;;;;;;6.93;3.13;;;4.70;90.30;;;;;;5051364;28;20485;-70
2021/03/13 00:12:21;;;;;;;8.37;3.40;;;4.70;90.40;;;;;;5052938;28;20044;-68
2021/03/13 00:14:47;;;;;;;7.03;3.07;;;4.70;90.40;;;;;;5053803;28;20409;-69
2021/03/13 00:17:13;;;;;;;7.43;2.90;;;4.70;90.40;;;;;;5052896;28;20119;-71
2021/03/13 00:19:39;;;;;;;6.93;2.30;;;4.70;90.30;;;;;;5051680;28;20033;-70
2021/03/13 00:22:05;;;;;;;6.67;2.50;;;4.70;90.30;;;;;;5052164;28;20113;-70
2021/03/13 00:24:30;;;;;;;5.63;2.37;;;4.70;90.30;;;;;;5051820;28;20068;-70
2021/03/13 00:26:56;;;;;;;4.67;2.27;;;4.70;90.20;;;;;;5052822;28;20044;-71
2021/03/13 00:29:22;;;;;;;7.07;2.37;;;4.60;90.10;;;;;;5052332;28;20040;-71
2021/03/13 00:31:48;;;;;;;6.23;2.63;;;4.60;90.00;;;;;;5051168;28;20032;-71
2021/03/13 00:34:14;;;;;;;8.50;2.70;;;4.60;90.00;;;;;;5052879;28;20045;-70
2021/03/13 00:36:40;;;;;;;6.47;2.90;;;4.60;90.00;;;;;;5051231;28;20037;-69
2021/03/13 00:39:05;;;;;;;7.20;3.03;;;4.50;89.90;;;;;;5052757;28;20086;-68
2021/03/13 00:41:31;;;;;;;6.83;2.80;;;4.50;89.80;;;;;;5050543;28;20052;-71
2021/03/13 00:43:57;;;;;;;6.83;2.97;;;4.40;89.90;;;;;;5052565;28;20117;-72
2021/03/13 00:46:23;;;;;;;8.23;3.10;;;4.30;90.00;;;;;;5052498;28;20029;-70
2021/03/13 00:48:48;;;;;;;6.50;3.17;;;4.30;89.80;;;;;;5052071;28;20469;-69
2021/03/13 00:51:14;;;;;;;9.43;3.60;;;4.20;89.90;;;;;;5051976;28;20130;-68
2021/03/13 00:53:40;;;;;;;9.63;3.63;;;4.20;89.90;;;;;;5051787;28;20040;-69
2021/03/13 00:56:05;;;;;;;7.30;3.57;;;4.10;90.00;;;;;;5043282;28;20413;-68
2021/03/13 00:58:32;;;;;;;8.23;3.60;;;4.10;90.10;;;;;;5029642;28;20036;-68
2021/03/13 01:01:02;;;;;;;7.75;3.50;;;4.10;90.20;;;;;;5021950;28;20037;-69
2021/03/13 01:03:33;;;;;;;8.68;3.55;;;4.10;90.20;;;;;;5030535;28;20034;-69
2021/03/13 01:05:59;;;;;;;5.93;2.90;;;4.10;90.30;;;;;;5031645;28;20120;-69
2021/03/13 01:08:28;;;;;;;9.83;3.40;;;4.10;90.30;;;;;;5030506;28;20040;-70
2021/03/13 01:11:04;;;;;;;7.00;3.07;;;4.10;90.30;;;;;;5030132;28;20041;-69
2021/03/13 01:13:37;;;;;;;8.17;3.23;;;4.00;90.20;;;;;;5047145;28;20037;-70
2021/03/13 01:16:04;;;;;;;9.77;3.40;;;4.00;90.20;;;;;;5013880;28;20037;-69
2021/03/13 01:18:29;;;;;;;7.90;3.60;;;4.00;90.20;;;;;;5014053;28;20030;-71
2021/03/13 01:20:56;;;;;;;8.27;3.57;;;4.00;90.20;;;;;;5030346;28;20428;-71
2021/03/13 01:23:29;;;;;;;6.63;2.97;;;3.90;90.20;;;;;;5031445;28;20034;-69
2021/03/13 01:25:55;;;;;;;7.60;3.43;;;3.90;90.00;;;;;;5030443;28;20035;-71
2021/03/13 01:28:21;;;;;;;6.77;3.20;;;3.80;90.30;;;;;;5030055;28;20501;-69
2021/03/13 01:30:46;;;;;;;9.23;3.90;;;3.80;90.20;;;;;;5031309;28;20497;-70
2021/03/13 01:33:12;;;;;;;9.60;3.53;;;3.80;90.30;;;;;;5031567;28;20045;-69
2021/03/13 01:35:38;;;;;;;9.13;3.20;;;3.70;90.20;;;;;;5013416;28;20383;-70
2021/03/13 01:38:03;;;;;;;8.83;2.93;;;3.70;90.20;;;;;;5031626;28;20490;-70
2021/03/13 01:40:29;;;;;;;6.73;3.00;;;3.70;90.20;;;;;;5029681;28;20087;-68
2021/03/13 01:42:55;;;;;;;9.60;3.00;;;3.70;90.40;;;;;;5031365;28;20033;-70
2021/03/13 01:45:27;;;;;;;6.60;2.73;;;3.70;90.40;;;;;;5030182;28;20061;-71
2021/03/13 01:47:58;;;;;;;7.80;3.15;;;3.60;90.50;;;;;;5029756;28;20450;-70
2021/03/13 01:50:25;;;;;;;7.40;2.83;;;3.70;90.50;;;;;;5029890;28;20044;-69
2021/03/13 01:52:52;;;;;;;7.00;2.70;;;3.70;90.50;;;;;;5030689;28;20557;-65
2021/03/13 01:55:23;;;;;;;9.43;2.90;;;3.60;90.50;;;;;;5031430;28;20033;-66
2021/03/13 01:57:55;;;;;;;9.50;2.63;;;3.60;90.50;;;;;;5029648;28;20033;-66
2021/03/13 02:00:25;;;;;;;7.75;2.65;;;3.60;90.50;;;;;;5029708;28;20113;-64
2021/03/13 02:02:55;;;;;;;10.57;3.08;;;3.60;90.50;;;;;;5013608;28;20121;-66
2021/03/13 02:05:27;;;;;;;7.80;2.50;;;3.50;90.30;;;;;;5029998;28;20402;-64
2021/03/13 02:08:39;;;;;;;8.77;2.47;;;3.50;90.50;;;;;;5029926;28;20570;-66
2021/03/13 02:11:25;;;;;;;8.63;2.50;;;3.50;90.40;;;;;;5018229;28;20044;-65
2021/03/13 02:14:18;;;;;;;7.57;2.70;;;3.40;90.30;;;;;;5030603;28;20068;-65
2021/03/13 02:17:16;;;;;;;8.13;2.47;;;3.40;90.50;;;;;;5029334;28;20041;-66
2021/03/13 02:19:53;;;;;;;8.40;2.33;;;3.30;90.40;;;;;;5029708;28;20064;-66
2021/03/13 02:22:23;;;;;;;6.23;1.90;;;3.30;90.50;;;;;;5029151;28;20030;-64
2021/03/13 02:25:03;;;;;;;4.27;1.87;;;3.30;90.90;;;;;;5029684;28;20033;-65
2021/03/13 02:27:40;;;;;;;7.00;2.00;;;3.40;91.10;;;;;;5033158;28;20033;-66
2021/03/13 02:30:25;;;;;;;7.00;1.90;;;3.50;91.10;;;;;;5048975;28;20044;-66
2021/03/13 02:33:24;;;;;;;6.07;2.03;;;3.50;91.10;;;;;;5033996;28;20037;-65
2021/03/13 02:36:13;;;;;;;6.50;2.10;;;3.60;91.00;;;;;;5049015;28;20068;-67
2021/03/13 02:38:52;;;;;;;6.00;2.20;;;3.70;91.00;;;;;;5049652;28;20438;-64
2021/03/13 02:41:30;;;;;;;7.93;2.77;;;3.70;91.10;;;;;;5049511;28;20033;-69
2021/03/13 02:44:01;;;;;;;12.43;3.70;;;3.80;91.10;;;;;;5049619;28;20060;-68
2021/03/13 02:46:32;;;;;;;11.60;3.70;;;3.90;91.10;;;;;;5049211;28;20030;-68
2021/03/13 02:48:59;;;;;;;9.33;3.77;;;3.90;90.90;;;;;;5050709;28;20036;-68
2021/03/13 02:51:27;;;;;;;9.37;4.10;;;3.90;90.90;;;;;;5048589;28;20124;-69
2021/03/13 02:53:57;;;;;;;9.43;3.90;;;4.00;91.10;;;;;;5049417;28;20044;-68
2021/03/13 02:56:24;;;;;;;12.87;4.70;;;4.10;91.20;;;;;;5048854;28;20037;-67
2021/03/13 02:58:54;;;;;;;10.63;4.40;;;4.10;91.20;;;;;;5049267;28;20075;-67
2021/03/13 03:01:27;;;;;;;12.50;4.73;;;4.20;91.10;;;;;;5036223;28;20037;-67
2021/03/13 03:03:58;;;;;;;10.63;4.70;;;4.20;91.00;;;;;;5036791;28;20040;-69
2021/03/13 03:06:32;;;;;;;15.67;4.30;;;4.30;91.10;;;;;;5053013;28;20168;-67
2021/03/13 03:09:00;;;;;;;13.27;5.13;;;4.30;91.00;;;;;;5053036;28;20033;-67
2021/03/13 03:11:32;;;;;;;12.63;4.80;;;4.40;91.00;;;;;;5052579;28;20048;-67
2021/03/13 03:14:02;;;;;;;10.97;4.67;;;4.40;90.90;;;;;;5052326;28;20505;-68
2021/03/13 03:16:29;;;;;;;13.17;5.30;;;4.40;90.80;;;;;;5053047;28;20095;-69
2021/03/13 03:18:59;;;;;;;15.40;5.40;;;4.40;90.60;;;;;;5052412;28;20033;-67
2021/03/13 03:21:29;;;;;;;13.13;5.53;;;4.40;90.60;;;;;;5052421;28;20123;-69
2021/03/13 03:23:58;;;;;;;14.60;6.07;;;4.30;90.40;;;;;;5052736;28;20087;-67
2021/03/13 03:26:25;;;;;;;15.47;6.10;;;4.30;90.40;;;;;;5052925;28;20055;-68
2021/03/13 03:28:50;;;;;;;14.17;6.23;;;4.20;90.30;;;;;;5036052;28;20041;-67
2021/03/13 03:31:20;;;;;;;12.53;5.57;;;4.10;90.40;;;;;;5052480;28;20066;-68
2021/03/13 03:33:48;;;;;;;16.47;6.10;;;4.10;90.60;;;;;;5052781;28;20041;-67
2021/03/13 03:36:15;;;;;;;14.47;6.00;;;4.10;90.70;;;;;;5052665;28;20079;-69
2021/03/13 03:38:42;;;;;;;14.67;6.10;;;4.10;90.80;;;;;;5036252;28;20033;-70
2021/03/13 03:41:15;;;;;;;16.40;6.43;;;4.20;90.90;;;;;;5053530;28;20112;-69
2021/03/13 03:43:50;;;;;;;15.83;6.07;;;4.20;90.60;;;;;;5052078;28;20390;-71
2021/03/13 03:46:21;;;;;;;14.33;6.40;;;4.10;90.60;;;;;;5052159;28;20501;-69
2021/03/13 03:48:49;;;;;;;15.90;6.70;;;4.10;90.60;;;;;;5054301;28;20064;-70
2021/03/13 03:51:24;;;;;;;14.13;6.00;;;4.10;90.70;;;;;;5036373;28;20091;-69
2021/03/13 03:54:08;;;;;;;15.47;6.77;;;4.10;90.80;;;;;;5037810;28;20091;-69
2021/03/13 03:56:34;;;;;;;15.10;6.57;;;4.10;90.60;;;;;;5035974;28;20032;-68
2021/03/13 03:59:02;;;;;;;21.23;7.03;;;4.00;90.60;;;;;;5053128;28;20055;-69
2021/03/13 04:01:30;;;;;;;17.67;6.60;;;4.00;90.60;;;;;;5053232;28;20036;-70
2021/03/13 04:03:58;;;;;;;21.17;7.17;;;4.00;90.50;;;;;;5053015;28;20041;-69
2021/03/13 04:06:25;;;;;;;16.83;6.60;;;3.90;90.60;;;;;;5053256;28;20103;-70
2021/03/13 04:08:58;;;;;;;16.90;7.10;;;3.80;90.50;;;;;;5051589;28;20041;-69
2021/03/13 04:11:25;;;;;;;18.57;6.73;;;3.80;90.70;;;;;;5052689;28;20041;-69
2021/03/13 04:13:58;;;;;;;20.23;6.83;;;3.80;90.80;;;;;;5052732;28;20045;-69
2021/03/13 04:16:25;;;;;;;20.97;7.60;;;3.80;90.90;;;;;;5051366;28;20056;-70
2021/03/13 04:18:51;;;;;;;22.03;7.53;;;3.80;90.80;;;;;;5051929;28;20041;-70
2021/03/13 04:21:17;;;;;;;20.50;7.83;;;3.70;90.90;;;;;;5050974;28;20040;-70
2021/03/13 04:23:46;;;;;;;19.57;8.10;;;3.70;90.90;;;;;;5052726;28;20056;-70
2021/03/13 04:26:13;;;;;;;15.70;7.40;;;3.70;90.90;;;;;;5051227;28;20330;-69
2021/03/13 04:28:39;;;;;;;20.83;7.57;;;3.70;91.20;;;;;;5051467;28;20087;-68
2021/03/13 04:31:05;;;;;;;18.87;8.10;;;3.70;91.00;;;;;;5051235;28;20037;-69
2021/03/13 04:33:33;;;;;;;24.10;8.40;;;3.70;91.10;;;;;;5052148;28;20059;-68
2021/03/13 04:36:00;;;;;;;19.83;8.47;;;3.70;91.20;;;;;;5051379;28;20025;-68
2021/03/13 04:38:26;;;;;;;19.67;8.90;;;3.70;91.10;;;;;;5052157;28;20102;-69
2021/03/13 04:40:53;;;;;;;21.17;8.67;;;3.60;91.10;;;;;;5050934;28;20041;-68
2021/03/13 04:43:22;;;;;;;22.03;9.37;;;3.60;91.10;;;;;;5052442;28;20037;-68
2021/03/13 04:45:48;;;;;;;18.60;8.60;;;3.60;91.20;;;;;;5050752;28;20041;-69
2021/03/13 04:48:15;;;;;;;23.27;8.93;;;3.60;91.20;;;;;;5051086;28;20041;-69
2021/03/13 04:50:43;;;;;;;19.97;8.97;;;3.60;91.30;;;;;;5052007;28;20051;-69
2021/03/13 04:53:09;;;;;;;25.50;9.83;;;3.60;91.30;;;;;;5050560;28;20049;-68
2021/03/13 04:55:34;;;;;;;21.43;9.93;;;3.60;91.30;;;;;;5052256;28;20055;-69
2021/03/13 04:58:00;;;;;;;20.50;9.30;;;3.60;91.50;;;;;;5050645;28;20041;-69
2021/03/13 05:00:26;;;;;;;19.70;9.37;;;3.60;91.40;;;;;;5050909;28;20444;-68
2021/03/13 05:02:51;;;;;;;23.97;10.57;;;3.60;91.50;;;;;;5051965;28;20047;-69
2021/03/13 05:05:17;;;;;;;22.63;10.50;;;3.60;91.60;;;;;;5051746;28;20043;-69
2021/03/13 05:07:43;;;;;;;20.13;10.43;;;3.60;91.70;;;;;;5052099;28;20041;-71
2021/03/13 05:10:10;;;;;;;17.43;8.93;;;3.70;91.70;;;;;;5051516;28;20121;-69
2021/03/13 05:12:36;;;;;;;20.87;10.97;;;3.70;91.70;;;;;;5050076;28;20025;-70
2021/03/13 05:15:07;;;;;;;27.03;11.03;;;3.70;91.90;;;;;;5051927;28;20035;-70
2021/03/13 05:17:32;;;;;;;;;;;3.70;91.90;;;;;;5051870;28;20116;-68
2021/03/13 05:19:58;;;;;;;22.43;10.53;;;3.80;91.90;;;;;;5052003;28;19920;-70
2021/03/13 05:22:24;;;;;;;22.97;11.57;;;3.80;91.90;;;;;;5050971;28;20473;-69
2021/03/13 05:24:50;;;;;;;25.57;11.80;;;3.80;91.90;;;;;;5050696;28;20036;-68
2021/03/13 05:27:16;;;;;;;24.90;11.67;;;3.90;92.00;;;;;;5051976;28;20056;-70
2021/03/13 05:29:41;;;;;;;24.83;11.13;;;3.90;92.00;;;;;;5050163;28;20061;-70
2021/03/13 05:32:07;;;;;;;26.03;12.97;;;3.90;92.00;;;;;;5050415;28;20033;-70
2021/03/13 05:34:34;;;;;;;24.70;12.77;;;3.90;92.00;;;;;;5051463;28;20041;-69
2021/03/13 05:37:00;;;;;;;26.47;12.80;;;4.00;92.00;;;;;;5050546;28;20401;-69
2021/03/13 05:39:25;;;;;;;27.50;13.40;;;4.00;92.00;;;;;;5051710;28;20040;-70
2021/03/13 05:41:52;;;;;;;26.67;13.83;;;4.10;92.10;;;;;;5050944;28;20052;-70
2021/03/13 05:44:18;;;;;;;26.70;13.27;;;4.10;92.10;;;;;;5050316;28;20075;-70
2021/03/13 05:46:45;;;;;;;25.37;14.20;;;4.10;92.00;;;;;;5049744;28;20051;-70
2021/03/13 05:49:11;;;;;;;23.53;13.87;;;4.20;92.10;;;;;;5050357;28;20045;-69
2021/03/13 05:51:42;;;;;;;26.77;14.27;;;4.20;92.00;;;;;;5033518;28;20500;-76
2021/03/13 05:54:08;;;;;;;26.17;14.47;;;4.20;92.10;;;;;;5055678;28;20087;-72
2021/03/13 05:56:35;;;;;;;30.93;14.53;;;4.20;92.10;;;;;;5051832;28;20045;-71
2021/03/13 05:59:02;;;;;;;25.47;14.50;;;4.30;92.30;;;;;;5051906;28;20451;-70
2021/03/13 06:01:28;;;;;;;25.10;13.90;;;4.30;92.30;;;;;;5051422;28;20037;-71
2021/03/13 06:03:55;;;;;;;25.30;13.93;;;4.30;92.30;;;;;;5053294;28;20040;-70
2021/03/13 06:06:22;;;;;;;23.47;13.10;;;4.40;92.30;;;;;;5052550;28;20045;-65
2021/03/13 06:08:49;;;;;;;25.00;13.57;;;4.40;92.30;;;;;;5054043;28;20328;-65
2021/03/13 06:11:17;;;;;;;28.90;13.70;;;4.50;92.30;;;;;;5049246;28;20057;-65
2021/03/13 06:13:43;;;;;;;25.40;14.33;;;4.50;92.30;;;;;;5049457;28;20094;-65
2021/03/13 06:16:09;;;;;;;26.33;13.80;;;4.60;92.30;;;;;;5051083;28;20480;-65
2021/03/13 06:18:47;;;;;;;24.83;14.63;;;4.60;92.30;;;;;;5050933;28;20037;-64
2021/03/13 06:21:24;;;;;;;28.37;13.50;;;4.70;92.40;;;;;;5050721;28;20041;-70
2021/03/13 06:24:16;;;;;;;26.30;14.03;;;4.70;92.40;;;;;;5050887;28;20543;-69
2021/03/13 06:26:59;;;;;;;24.23;14.37;;;4.80;92.30;;;;;;5043476;28;20045;-68
2021/03/13 06:29:25;;;;;;;27.17;14.37;;;4.80;92.30;;;;;;5049808;28;20037;-70
2021/03/13 06:32:11;;;;;;;22.90;13.60;;;4.90;92.30;;;;;;5050298;28;20446;-70
2021/03/13 06:34:38;;;;;;;24.20;13.90;;;4.90;92.30;;;;;;5051897;28;20052;-69
2021/03/13 06:37:26;;;;;;;29.10;13.43;;;4.90;92.30;;;;;;5054604;28;20033;-69
2021/03/13 06:39:53;;;;;;;23.20;13.53;;;4.90;92.30;;;;;;5054688;28;20037;-72
2021/03/13 06:42:29;;;;;;;22.07;12.43;;;5.00;92.30;;;;;;5055812;28;20302;-70
2021/03/13 06:44:56;;;;;;;22.77;12.43;;;5.00;92.30;;;;;;5054732;28;20045;-70
2021/03/13 06:47:38;;;;;;;25.17;12.80;;;5.00;92.30;;;;;;5053112;28;20075;-70
2021/03/13 06:50:20;;;;;;;25.77;12.00;;;5.10;92.30;;;;;;5052805;28;20040;-69
2021/03/13 06:53:07;;;;;;;23.60;12.40;;;5.10;92.30;;;;;;5052951;28;20064;-69
2021/03/13 06:55:34;;;;;;;25.30;12.40;;;5.10;92.30;;;;;;5054122;28;20041;-69
2021/03/13 06:58:13;;;;;;;27.10;11.90;;;5.20;92.30;;;;;;5053188;28;20043;-69
2021/03/13 07:00:41;;;;;;;19.80;10.77;;;5.20;92.30;;;;;;5053936;28;20379;-68
2021/03/13 07:03:14;;;;;;;18.60;10.33;;;5.20;92.30;;;;;;5054441;28;20048;-68
2021/03/13 07:05:44;;;;;;;17.73;9.57;;;5.30;92.40;;;;;;5054156;28;20041;-67
2021/03/13 07:08:22;;;;;;;20.27;9.68;;;5.30;92.40;;;;;;5054386;28;20127;-68
2021/03/13 07:10:48;;;;;;;17.73;8.83;;;5.40;92.40;;;;;;5053683;28;20033;-67
2021/03/13 07:13:43;;;;;;;16.87;9.10;;;5.40;92.30;;;;;;5054015;28;20048;-67
2021/03/13 07:16:31;;;;;;;17.60;8.53;;;5.40;92.30;;;;;;5054115;28;20029;-67
2021/03/13 07:18:58;;;;;;;17.37;7.20;;;5.40;92.20;;;;;;5052526;28;20039;-68
2021/03/13 07:21:24;;;;;;;17.80;8.47;;;5.40;92.30;;;;;;5053841;28;20040;-67
2021/03/13 07:23:57;;;;;;;16.93;7.67;;;5.40;92.30;;;;;;5052512;28;20033;-67
2021/03/13 07:26:25;;;;;;;15.83;7.73;;;5.40;92.30;;;;;;5069250;28;20037;-67
2021/03/13 07:28:57;;;;;;;17.80;9.10;;;5.40;92.40;;;;;;5053950;28;20036;-67
2021/03/13 07:31:25;;;;;;;21.60;11.30;;;5.40;92.40;;;;;;5053093;28;20025;-68
2021/03/13 07:33:51;;;;;;;15.07;7.50;;;5.30;92.50;;;;;;5052424;28;20049;-69
2021/03/13 07:36:20;;;;;;;20.87;10.00;;;5.40;92.50;;;;;;5053478;28;20086;-68
2021/03/13 07:38:49;;;;;;;18.10;9.77;;;5.40;92.50;;;;;;5053683;28;20033;-69
2021/03/13 07:41:18;;;;;;;13.60;7.40;;;5.30;92.50;;;;;;5053106;28;20028;-68
2021/03/13 07:43:45;;;;;;;17.93;8.73;;;5.40;92.60;;;;;;5053570;28;20037;-67
2021/03/13 07:46:13;;;;;;;20.77;11.00;;;5.30;92.60;;;;;;5053258;28;20041;-67
2021/03/13 07:48:40;;;;;;;14.77;7.43;;;5.30;92.70;;;;;;5053093;28;20097;-68
2021/03/13 07:51:08;;;;;;;11.67;5.37;;;5.30;92.70;;;;;;5053276;28;20558;-68
2021/03/13 07:53:39;;;;;;;17.20;8.97;;;5.30;93.00;;;;;;5052823;28;20040;-67
2021/03/13 07:56:09;;;;;;;14.67;6.67;;;5.30;92.80;;;;;;5053507;28;20080;-68
2021/03/13 07:58:38;;;;;;;15.40;6.93;;;5.30;92.80;;;;;;5052936;28;20044;-69
2021/03/13 08:01:04;;;;;;;11.97;5.07;;;5.30;92.90;;;;;;5053086;28;20037;-68
2021/03/13 08:03:33;;;;;;;12.00;6.13;;;5.30;92.90;;;;;;5051908;28;20120;-69
2021/03/13 08:06:16;;;;;;;11.00;5.40;;;5.30;92.90;;;;;;5052732;28;20448;-67
2021/03/13 08:08:46;;;;;;;10.00;5.37;;;5.30;92.90;;;;;;5053232;28;20141;-68
2021/03/13 08:11:14;;;;;;;11.20;4.50;;;5.30;93.00;;;;;;5068101;28;20037;-69
2021/03/13 08:13:39;;;;;;;9.77;5.27;;;5.30;93.20;;;;;;5052930;28;20128;-68
2021/03/13 08:16:07;;;;;;;10.23;4.60;;;5.30;93.20;;;;;;5050973;28;20171;-67
2021/03/13 08:18:46;;;;;;;7.03;3.50;;;5.30;93.20;;;;;;5053343;28;20048;-67
2021/03/13 08:21:18;;;;;;;9.23;3.53;;;5.40;93.20;;;;;;5051168;28;20120;-68
2021/03/13 08:23:47;;;;;;;9.33;3.90;;;5.40;93.30;;;;;;5052927;28;20485;-67
2021/03/13 08:26:14;;;;;;;8.20;4.03;;;5.40;93.20;;;;;;5052706;28;20099;-70
2021/03/13 08:28:48;;;;;;;8.30;3.57;;;5.40;93.30;;;;;;5053079;28;20033;-68
2021/03/13 08:31:23;;;;;;;7.97;3.67;;;5.30;93.20;;;;;;5052402;28;20033;-69
2021/03/13 08:33:49;;;;;;;8.07;3.40;;;5.30;93.40;;;;;;5052625;28;20045;-67
2021/03/13 08:36:17;;;;;;;8.87;3.50;;;5.30;93.30;;;;;;5034994;28;20123;-71
2021/03/13 08:38:53;;;;;;;8.23;3.83;;;5.20;93.40;;;;;;5052247;28;20548;-72
2021/03/13 08:41:30;;;;;;;6.17;2.90;;;5.20;93.60;;;;;;5052924;28;20045;-72
2021/03/13 08:44:02;;;;;;;4.80;2.37;;;5.30;93.70;;;;;;5050856;28;20047;-61
2021/03/13 08:46:49;;;;;;;5.77;2.53;;;5.30;93.70;;;;;;5052957;28;20123;-61
2021/03/13 08:49:21;;;;;;;6.50;2.40;;;5.30;93.90;;;;;;5052209;28;20033;-61
2021/03/13 08:51:47;;;;;;;6.67;2.30;;;5.40;93.80;;;;;;5051926;28;20040;-61
2021/03/13 08:54:12;;;;;;;6.40;2.60;;;5.40;94.00;;;;;;5052153;28;20048;-61
2021/03/13 08:56:45;;;;;;;5.63;2.30;;;5.40;94.10;;;;;;5034668;28;20041;-61
2021/03/13 08:59:19;;;;;;;6.73;2.80;;;5.50;94.00;;;;;;5051334;28;20407;-61
2021/03/13 09:02:05;;;;;;;6.57;2.97;;;5.50;94.00;;;;;;5051743;28;20040;-61
2021/03/13 09:04:33;;;;;;;4.97;2.17;;;5.50;94.00;;;;;;5052320;28;20041;-61
2021/03/13 09:07:00;;;;;;;5.77;2.33;;;5.50;94.00;;;;;;5051464;28;20051;-61
2021/03/13 09:09:29;;;;;;;5.30;2.60;;;5.50;94.10;;;;;;5030014;28;20072;-61
2021/03/13 09:12:06;;;;;;;5.20;2.50;;;5.50;94.10;;;;;;5025043;28;20056;-61
2021/03/13 09:14:32;;;;;;;5.93;2.50;;;5.50;94.10;;;;;;5042100;28;20047;-61
2021/03/13 09:17:13;;;;;;;8.60;2.87;;;5.50;94.20;;;;;;5049214;28;20047;-61
2021/03/13 09:19:40;;;;;;;6.57;2.42;;;5.60;94.30;;;;;;5071423;28;20060;-61
2021/03/13 09:22:11;;;;;;;6.43;3.00;;;5.60;94.30;;;;;;5037101;28;20036;-61
2021/03/13 09:24:37;;;;;;;5.63;2.77;;;5.70;94.40;;;;;;5053346;28;20086;-61
2021/03/13 09:27:05;;;;;;;6.17;2.80;;;5.70;94.40;;;;;;5053775;28;20036;-62
2021/03/13 09:29:52;;;;;;;5.93;3.10;;;5.70;94.40;;;;;;5053815;28;20447;-61
2021/03/13 09:32:18;;;;;;;6.00;2.93;;;5.80;94.50;;;;;;5071060;28;20033;-61
2021/03/13 09:34:46;;;;;;;6.20;2.93;;;5.80;94.50;;;;;;5071356;28;20102;-61
2021/03/13 09:37:21;;;;;;;6.87;3.20;;;5.80;94.50;;;;;;5070879;28;20054;-62
2021/03/13 09:39:50;;;;;;;5.80;2.50;;;5.90;94.60;;;;;;5071482;28;20032;-61
2021/03/13 09:42:24;;;;;;;6.23;2.70;;;6.00;94.50;;;;;;5070531;28;20166;-61
2021/03/13 09:44:54;;;;;;;4.63;2.33;;;6.00;94.50;;;;;;5054329;28;20127;-61
2021/03/13 09:47:22;;;;;;;5.50;2.57;;;6.00;94.60;;;;;;5053177;28;20106;-61
2021/03/13 09:49:51;;;;;;;4.47;2.20;;;6.00;94.70;;;;;;5071251;28;20029;-61
2021/03/13 09:52:29;;;;;;;5.27;2.30;;;6.10;94.60;;;;;;5052731;28;20036;-62
2021/03/13 09:55:06;;;;;;;4.50;2.17;;;6.10;94.60;;;;;;5071012;28;20036;-61
2021/03/13 09:57:33;;;;;;;4.43;2.50;;;6.20;94.60;;;;;;5070819;28;20060;-61
2021/03/13 10:00:00;;;;;;;6.63;2.50;;;6.20;94.60;;;;;;5071054;28;20040;-61
2021/03/13 10:02:26;;;;;;;3.13;1.50;;;6.20;94.70;;;;;;5071052;28;20224;-61
2021/03/13 10:04:53;;;;;;;3.20;1.30;;;6.20;94.80;;;;;;5070548;28;20028;-61
2021/03/13 10:07:19;;;;;;;4.33;1.30;;;6.30;94.80;;;;;;5071040;28;20024;-62
2021/03/13 10:10:00;;;;;;;2.77;0.97;;;6.40;94.70;;;;;;5070424;28;20079;-62
2021/03/13 10:12:31;;;;;;;2.50;0.90;;;6.40;94.60;;;;;;5070826;28;20039;-61
2021/03/13 10:15:17;;;;;;;3.57;1.17;;;6.30;94.70;;;;;;5070390;28;20036;-61
2021/03/13 10:18:03;;;;;;;2.43;0.97;;;6.40;95.00;;;;;;5071149;28;20037;-62
2021/03/13 10:20:52;;;;;;;4.67;1.00;;;6.60;94.90;;;;;;5070621;28;20045;-70
2021/03/13 10:23:25;;;;;;;3.57;0.90;;;6.70;94.90;;;;;;5070744;28;20052;-61
2021/03/13 10:26:06;;;;;;;2.57;0.70;;;6.80;95.00;;;;;;5070406;28;20075;-60
2021/03/13 10:28:36;;;;;;;3.30;1.00;;;8.00;96.80;;;;;;5052777;28;20033;-61
2021/03/13 10:31:06;;;;;;;;;;;9.70;96.00;;;;;;5054495;28;20028;-62
2021/03/13 10:33:33;;;;;;;6.20;0.98;;;11.00;94.10;;;;;;5072038;28;19984;-64
2021/03/13 10:35:59;;;;;;;4.45;0.73;;;11.90;93.00;;;;;;5072340;28;20063;-61
2021/03/13 10:38:25;;;;;;;6.55;1.10;;;12.20;92.30;;;;;;5072550;28;20033;-60
2021/03/13 10:41:06;;;;;;;4.10;1.00;;;12.60;92.60;;;;;;5071568;28;20028;-62
2021/03/13 10:43:40;;;;;;;3.67;1.00;;;13.00;91.10;;;;;;5054247;28;20399;-60
2021/03/13 10:46:12;;;;;;;5.18;1.10;;;13.00;90.30;;;;;;5072602;28;20131;-61
2021/03/13 10:48:55;;;;;;;5.63;1.10;;;13.20;90.90;;;;;;5071559;28;20044;-60
2021/03/13 10:51:26;;;;;;;4.35;1.00;;;13.40;90.50;;;;;;5070559;28;20396;-61
2021/03/13 10:53:52;;;;;;;;;;;13.60;87.50;;;;;;5071270;28;20044;-62
2021/03/13 10:56:18;;;;;;;5.65;1.40;;;13.20;88.20;;;;;;5070189;28;20323;-62
2021/03/13 10:58:46;;;;;;;4.30;1.20;;;13.10;87.80;;;;;;5070369;28;20350;-62
2021/03/13 11:01:12;;;;;;;5.18;1.20;;;13.30;90.10;;;;;;5069778;28;20401;-61
2021/03/13 11:03:40;;;;;;;5.47;1.10;;;13.90;88.50;;;;;;5043921;28;20473;-60
2021/03/13 11:06:06;;;;;;;5.72;1.20;;;14.30;83.90;;;;;;5055593;28;20132;-61
2021/03/13 11:08:32;;;;;;;4.93;1.15;;;14.00;78.70;;;;;;5061494;28;20115;-61
2021/03/13 11:10:58;;;;;;;6.75;1.23;;;13.20;77.00;;;;;;5069673;28;20036;-61
2021/03/13 11:13:25;;;;;;;5.50;1.20;;;12.30;76.00;;;;;;5068069;28;20083;-61
2021/03/13 11:15:52;;;;;;;5.95;1.10;;;11.50;77.40;;;;;;5050487;28;20291;-60
2021/03/13 11:18:18;;;;;;;6.38;1.20;;;11.00;78.20;;;;;;5068219;28;20029;-60
2021/03/13 11:20:44;;;;;;;6.65;1.45;;;10.60;79.70;;;;;;5068633;28;20028;-61
2021/03/13 11:23:11;;;;;;;6.40;1.42;;;11.10;82.50;;;;;;5071894;28;20040;-61
2021/03/13 11:25:36;;;;;;;6.15;1.60;;;11.30;78.20;;;;;;5054138;28;20093;-62
2021/03/13 11:28:05;;;;;;;9.98;1.40;;;10.90;76.80;;;;;;5073394;28;20492;-61
2021/03/13 11:30:32;;;;;;;6.65;1.40;;;10.50;77.00;;;;;;5073577;28;20177;-61
2021/03/13 11:32:58;;;;;;;6.80;1.75;;;10.20;77.60;;;;;;5055113;28;20066;-61
2021/03/13 11:35:24;;;;;;;8.77;1.50;;;10.20;78.80;;;;;;5073719;28;20113;-60
2021/03/13 11:37:50;;;;;;;8.93;1.63;;;10.20;78.40;;;;;;5073296;28;20055;-61
2021/03/13 11:40:18;;;;;;;7.75;1.38;;;10.30;77.80;;;;;;5035081;28;20045;-61
2021/03/13 11:42:44;;;;;;;5.43;1.50;;;10.30;76.50;;;;;;5037783;28;20575;-61
2021/03/13 11:45:12;;;;;;;6.82;1.27;;;10.00;76.10;;;;;;5044697;28;20485;-61
2021/03/13 11:47:38;;;;;;;9.52;2.10;;;9.80;76.70;;;;;;5065318;28;20102;-60
2021/03/13 11:50:07;;;;;;;9.18;2.03;;;9.90;78.60;;;;;;5055682;28;20408;-61
2021/03/13 11:52:34;;;;;;;7.30;1.80;;;10.20;79.80;;;;;;5073053;28;20033;-61
2021/03/13 11:55:00;;;;;;;7.05;1.60;;;10.30;78.70;;;;;;5055464;28;20048;-61
2021/03/13 11:57:25;;;;;;;8.32;1.70;;;10.50;78.50;;;;;;5054862;28;20028;-61
2021/03/13 11:59:51;;;;;;;7.78;1.80;;;11.00;78.70;;;;;;5073288;28;20033;-61
2021/03/13 12:02:17;;;;;;;8.25;1.48;;;11.60;77.00;;;;;;5072951;28;20554;-61
2021/03/13 12:04:44;;;;;;;7.97;1.30;;;12.00;75.90;;;;;;5072827;28;20151;-61
2021/03/13 12:07:11;;;;;;;5.43;1.35;;;12.50;75.60;;;;;;5055265;28;20090;-61
2021/03/13 12:09:37;;;;;;;7.03;1.30;;;12.40;73.10;;;;;;5055106;28;20090;-60
2021/03/13 12:12:06;;;;;;;4.10;0.95;;;12.00;72.30;;;;;;5072794;28;20036;-60
2021/03/13 12:14:33;;;;;;;5.35;1.00;;;11.50;70.60;;;;;;5072530;28;20516;-61
2021/03/13 12:17:00;;;;;;;4.10;0.90;;;10.50;68.80;;;;;;5072975;28;20512;-61
2021/03/13 12:19:25;;;;;;;5.07;1.00;;;9.40;70.60;;;;;;5072950;28;20036;-60
2021/03/13 12:21:51;;;;;;;4.53;0.95;;;8.60;72.90;;;;;;5072081;28;20179;-61
2021/03/13 12:24:17;;;;;;;4.18;1.05;;;8.00;74.40;;;;;;5072873;28;20036;-60
2021/03/13 12:26:43;;;;;;;5.70;1.00;;;7.60;76.70;;;;;;5072869;28;20097;-60
2021/03/13 12:29:09;;;;;;;5.47;0.90;;;7.50;79.20;;;;;;5052527;28;20103;-62
2021/03/13 12:31:35;;;;;;;4.00;1.00;;;7.60;80.10;;;;;;5052387;28;20512;-62
2021/03/13 12:34:00;;;;;;;6.35;1.10;;;8.10;82.50;;;;;;5052298;28;20075;-62
2021/03/13 12:36:26;;;;;;;7.57;1.20;;;9.30;84.50;;;;;;5052753;28;20059;-62
2021/03/13 12:38:52;;;;;;;6.07;1.20;;;10.40;83.10;;;;;;5050662;28;20471;-62
2021/03/13 12:41:18;;;;;;;6.32;1.30;;;11.00;79.90;;;;;;5066634;28;20094;-62
2021/03/13 12:43:43;;;;;;;4.72;1.10;;;11.40;78.40;;;;;;5060256;28;20047;-62
2021/03/13 12:46:15;;;;;;;5.35;1.33;;;12.20;80.10;;;;;;5068660;28;20048;-62
2021/03/13 12:48:44;;;;;;;5.70;1.10;;;13.00;78.10;;;;;;5054155;28;20082;-62
2021/03/13 12:51:10;;;;;;;5.75;1.42;;;13.40;75.20;;;;;;5067723;28;20119;-62
2021/03/13 12:53:36;;;;;;;7.07;1.35;;;13.60;73.80;;;;;;5063333;28;20067;-62
2021/03/13 12:56:03;;;;;;;5.50;1.20;;;13.60;72.70;;;;;;5037650;28;20504;-62
2021/03/13 12:58:29;;;;;;;5.95;1.38;;;13.30;70.80;;;;;;5065050;28;20090;-63
2021/03/13 13:00:55;;;;;;;6.55;1.58;;;13.40;71.90;;;;;;5066590;28;20033;-62
2021/03/13 13:03:21;;;;;;;7.82;1.73;;;14.10;73.10;;;;;;5071307;28;20041;-62